Time;durP1;ratioP1;P1;durP2;ratioP2;P2;SDS_P1;SDS_P2;PMS_P1;PMS_P2;Temp;Humidity;BMP_temperature;BMP_pressure;BME280_temperature;BME280_humidity;BME280_pressure;Samples;Min_cycle;Max_cycle;Signal;HPM_P1;HPM_P2
2021/10/19 00:00:37;;;;;;;8.18;5.90;;;;;;;7.16;70.83;100879.62;1700637;83;21074;-59
2021/10/19 00:03:04;;;;;;;5.70;5.10;;;;;;;7.11;71.08;100888.52;1662361;86;21129;-58
2021/10/19 00:05:30;;;;;;;6.53;5.33;;;;;;;7.07;71.28;100886.34;1662626;85;21316;-58
2021/10/19 00:07:57;;;;;;;5.03;4.53;;;;;;;7.02;71.20;100873.52;1662100;85;21095;-58
2021/10/19 00:10:23;;;;;;;6.22;4.65;;;;;;;7.08;71.14;100895.44;1660674;86;21176;-57
2021/10/19 00:12:49;;;;;;;6.15;4.80;;;;;;;7.06;71.40;100889.95;1661668;85;21810;-59
2021/10/19 00:15:15;;;;;;;8.43;4.90;;;;;;;6.97;71.66;100891.72;1650646;85;21061;-56
2021/10/19 00:17:45;;;;;;;5.55;4.85;;;;;;;6.89;71.94;100894.27;1651093;85;21175;-57
2021/10/19 00:20:14;;;;;;;5.87;5.00;;;;;;;6.84;72.10;100892.08;1650951;85;21015;-58
2021/10/19 00:22:40;;;;;;;4.20;3.77;;;;;;;6.82;72.31;100885.60;1650611;84;21129;-60
2021/10/19 00:25:09;;;;;;;7.30;4.97;;;;;;;6.86;72.41;100897.23;1650230;85;21020;-58
2021/10/19 00:27:36;;;;;;;5.27;4.60;;;;;;;6.83;72.36;100897.03;1650413;85;21106;-61
2021/10/19 00:30:07;;;;;;;7.97;5.40;;;;;;;6.81;72.46;100898.50;1649847;85;21915;-58
2021/10/19 00:32:35;;;;;;;5.40;4.37;;;;;;;6.78;72.63;100900.61;1650212;85;21063;-59
2021/10/19 00:35:01;;;;;;;4.97;4.53;;;;;;;6.70;73.01;100896.06;1650972;85;21020;-57
2021/10/19 00:37:29;;;;;;;9.63;4.97;;;;;;;6.63;73.20;100897.66;1650952;85;21048;-58
2021/10/19 00:39:56;;;;;;;5.90;5.30;;;;;;;6.58;73.33;100902.56;1650582;85;21143;-59
2021/10/19 00:42:22;;;;;;;4.45;4.05;;;;;;;6.56;73.53;100899.23;1651631;85;21305;-58
2021/10/19 00:44:48;;;;;;;8.48;4.50;;;;;;;6.58;73.60;100895.95;1649042;85;21772;-57
2021/10/19 00:47:20;;;;;;;5.05;4.20;;;;;;;6.57;73.50;100902.21;1650549;85;21297;-58
2021/10/19 00:49:48;;;;;;;6.80;4.77;;;;;;;6.56;73.68;100899.23;1650232;85;21885;-57
2021/10/19 00:52:16;;;;;;;5.77;4.67;;;;;;;6.52;73.78;100901.84;1650910;85;21805;-58
2021/10/19 00:54:43;;;;;;;6.03;4.77;;;;;;;6.49;73.78;100909.57;1651152;85;21538;-58
2021/10/19 00:57:10;;;;;;;6.43;5.00;;;;;;;6.44;73.91;100903.88;1650167;85;21126;-58
2021/10/19 00:59:46;;;;;;;6.93;4.97;;;;;;;6.41;73.90;100903.69;1648557;85;21888;-60
2021/10/19 01:02:16;;;;;;;6.00;4.40;;;;;;;6.43;73.85;100905.70;1670353;84;21286;-58
2021/10/19 01:04:43;;;;;;;7.47;4.93;;;;;;;6.49;73.65;100912.22;1671260;84;21331;-59
2021/10/19 01:07:10;;;;;;;4.47;4.10;;;;;;;6.52;73.48;100910.61;1671417;84;21127;-56
2021/10/19 01:09:37;;;;;;;6.00;4.33;;;;;;;6.52;73.53;100909.79;1669811;84;21205;-60
2021/10/19 01:12:05;;;;;;;7.87;4.63;;;;;;;6.46;73.57;100910.36;1670817;82;21058;-58
2021/10/19 01:14:31;;;;;;;9.60;5.37;;;;;;;6.40;73.78;100911.78;1671638;84;21055;-56
2021/10/19 01:16:57;;;;;;;6.22;5.12;;;;;;;6.31;73.85;100912.19;1671283;84;21087;-56
2021/10/19 01:19:25;;;;;;;7.40;4.95;;;;;;;6.27;74.00;100920.05;1671387;84;21043;-57
2021/10/19 01:21:55;;;;;;;5.00;4.50;;;;;;;6.28;74.00;100915.11;1651569;84;21059;-57
2021/10/19 01:24:22;;;;;;;4.57;4.17;;;;;;;6.29;73.92;100914.16;1642972;85;21055;-58
2021/10/19 01:26:48;;;;;;;8.05;5.03;;;;;;;6.31;73.85;100925.42;1643571;86;21088;-56
2021/10/19 01:29:15;;;;;;;4.58;4.17;;;;;;;6.28;73.84;100923.55;1643761;86;21096;-60
2021/10/19 01:31:50;;;;;;;5.07;4.57;;;;;;;6.20;73.87;100932.23;1643352;86;21077;-60
2021/10/19 01:34:18;;;;;;;5.00;4.60;;;;;;;6.10;74.23;100933.56;1643204;85;21638;-59
2021/10/19 01:36:45;;;;;;;6.00;4.50;;;;;;;6.00;74.32;100927.48;1643367;86;21061;-60
2021/10/19 01:39:12;;;;;;;6.20;5.00;;;;;;;5.96;74.37;100930.90;1643350;85;21143;-58
2021/10/19 01:41:41;;;;;;;6.50;4.60;;;;;;;5.94;74.58;100934.64;1642627;85;21937;-58
2021/10/19 01:44:07;;;;;;;7.00;5.53;;;;;;;5.91;74.61;100938.89;1642974;86;21083;-59
2021/10/19 01:46:33;;;;;;;5.42;4.92;;;;;;;5.86;74.63;100945.95;1643003;85;21116;-59
2021/10/19 01:48:59;;;;;;;7.75;5.03;;;;;;;5.81;74.92;100941.06;1642301;86;21094;-59
2021/10/19 01:51:27;;;;;;;5.33;4.83;;;;;;;5.65;74.96;100931.55;1643243;85;21060;-57
2021/10/19 01:53:54;;;;;;;4.92;4.45;;;;;;;5.63;75.10;100946.27;1643341;86;21080;-56
2021/10/19 01:56:20;;;;;;;6.80;6.10;;;;;;;5.56;75.08;100937.22;1669157;84;21259;-58
2021/10/19 01:58:47;;;;;;;;;;;;;;;5.63;75.00;100941.44;1673758;84;21012;-58
2021/10/19 02:01:13;;;;;;;6.87;4.87;;;;;;;5.63;74.98;100937.47;1671237;84;20372;-59
2021/10/19 02:03:39;;;;;;;6.80;5.60;;;;;;;5.52;74.97;100929.22;1671415;84;21878;-58
2021/10/19 02:06:06;;;;;;;11.45;5.08;;;;;;;5.55;75.04;100947.93;1671694;84;21784;-58
2021/10/19 02:08:34;;;;;;;7.50;5.97;;;;;;;5.46;75.25;100948.27;1670259;84;21455;-56
2021/10/19 02:11:00;;;;;;;;;;;;;;;5.32;75.35;100936.81;1673103;84;21066;-59
2021/10/19 02:13:27;;;;;;;5.27;4.77;;;;;;;5.34;75.48;100953.37;1670515;84;20552;-57
2021/10/19 02:15:53;;;;;;;6.33;5.72;;;;;;;5.28;75.75;100953.44;1671064;84;21391;-56
2021/10/19 02:18:20;;;;;;;7.97;6.07;;;;;;;5.24;75.81;100958.16;1671121;84;21848;-59
2021/10/19 02:20:46;;;;;;;7.90;6.28;;;;;;;5.18;75.78;100952.12;1670719;84;21812;-60
2021/10/19 02:23:12;;;;;;;6.47;5.83;;;;;;;5.26;75.88;100959.35;1670994;84;21366;-57
2021/10/19 02:25:38;;;;;;;;;;;;;;;5.24;75.83;100962.13;1672351;84;21060;-58
2021/10/19 02:28:04;;;;;;;8.47;6.50;;;;;;;5.18;75.96;100968.44;1668969;84;20163;-58
2021/10/19 02:30:31;;;;;;;6.42;5.60;;;;;;;5.04;76.44;100977.61;1669453;84;21067;-57
2021/10/19 02:33:00;;;;;;;5.62;4.75;;;;;;;5.01;76.58;100975.23;1668887;84;21059;-57
2021/10/19 02:35:26;;;;;;;7.97;5.70;;;;;;;5.02;76.92;100973.78;1669101;83;21916;-58
2021/10/19 02:37:53;;;;;;;5.47;4.90;;;;;;;5.06;76.59;100980.95;1669577;84;21092;-61
2021/10/19 02:40:20;;;;;;;5.70;5.10;;;;;;;5.09;76.42;100985.14;1661162;84;21917;-57
2021/10/19 02:42:46;;;;;;;;;;;;;;;5.09;76.33;100980.69;1658248;85;22011;-56
2021/10/19 02:45:14;;;;;;;6.93;6.20;;;;;;;5.04;76.24;100982.89;1656249;84;20234;-59
2021/10/19 02:47:41;;;;;;;8.00;5.53;;;;;;;4.92;76.61;100979.55;1657670;85;21055;-58
2021/10/19 02:50:10;;;;;;;5.87;5.33;;;;;;;4.88;76.72;100983.44;1631945;86;21293;-56
2021/10/19 02:52:38;;;;;;;7.70;5.23;;;;;;;4.89;76.59;100994.33;1611830;86;21070;-59
2021/10/19 02:55:07;;;;;;;5.85;5.25;;;;;;;4.95;76.54;100994.28;1671159;83;21114;-61
2021/10/19 02:57:33;;;;;;;5.53;5.03;;;;;;;4.95;76.40;100995.59;1688580;83;21012;-56
2021/10/19 02:59:59;;;;;;;6.72;5.05;;;;;;;4.96;76.43;100995.47;1690217;83;21183;-57
2021/10/19 03:02:25;;;;;;;6.03;5.30;;;;;;;4.95;76.37;100991.63;1690366;83;21070;-56
2021/10/19 03:04:51;;;;;;;5.65;5.15;;;;;;;4.87;76.35;100993.63;1688471;83;21059;-56
2021/10/19 03:07:18;;;;;;;6.95;5.67;;;;;;;4.82;76.35;100999.34;1689479;83;21082;-58
2021/10/19 03:09:44;;;;;;;10.30;5.42;;;;;;;4.81;76.30;101002.11;1688952;83;21870;-58
2021/10/19 03:12:11;;;;;;;5.63;5.03;;;;;;;4.81;76.11;100999.47;1673253;83;21783;-56
2021/10/19 03:14:37;;;;;;;9.63;6.22;;;;;;;4.85;75.96;101003.50;1657371;85;21132;-57
2021/10/19 03:17:03;;;;;;;5.65;5.15;;;;;;;4.87;75.81;101002.38;1658545;84;21042;-58
2021/10/19 03:19:29;;;;;;;6.30;5.12;;;;;;;4.90;75.72;101005.73;1648618;85;21923;-58
2021/10/19 03:21:56;;;;;;;7.80;5.25;;;;;;;4.91;75.60;101012.20;1653486;84;21033;-55
2021/10/19 03:24:22;;;;;;;7.15;6.42;;;;;;;4.88;75.59;101007.20;1651417;84;21827;-56
2021/10/19 03:26:48;;;;;;;6.12;5.62;;;;;;;4.84;75.75;101013.70;1670350;84;21263;-59
2021/10/19 03:29:14;;;;;;;7.03;6.10;;;;;;;4.80;75.77;101013.63;1671891;84;21044;-57
2021/10/19 03:31:40;;;;;;;5.78;4.45;;;;;;;4.75;75.79;101012.72;1660222;84;21129;-56
2021/10/19 03:34:06;;;;;;;7.35;5.53;;;;;;;4.72;75.96;101016.94;1614331;86;21058;-57
2021/10/19 03:36:33;;;;;;;5.60;5.05;;;;;;;4.75;75.82;101014.53;1684285;83;21056;-57
2021/10/19 03:38:59;;;;;;;6.72;5.22;;;;;;;4.75;75.79;101027.25;1678754;83;21904;-57
2021/10/19 03:41:25;;;;;;;6.47;4.75;;;;;;;4.71;75.77;101033.77;1684931;83;21021;-56
2021/10/19 03:43:51;;;;;;;5.87;4.50;;;;;;;4.71;75.77;101033.77;1685334;83;21005;-57
2021/10/19 03:46:17;;;;;;;6.45;5.75;;;;;;;4.69;75.92;101034.39;1664304;82;21737;-57
2021/10/19 03:48:43;;;;;;;7.60;6.30;;;;;;;4.62;76.11;101033.25;1664290;83;21028;-59
2021/10/19 03:51:09;;;;;;;7.03;5.55;;;;;;;4.56;76.18;101030.65;1668975;83;21329;-56
2021/10/19 03:53:37;;;;;;;10.08;6.28;;;;;;;4.55;76.25;101041.34;1679316;83;21297;-56
2021/10/19 03:56:05;;;;;;;7.50;6.00;;;;;;;4.56;76.20;101039.03;1678269;83;21108;-58
2021/10/19 03:58:31;;;;;;;8.50;6.63;;;;;;;4.57;75.91;101038.08;1660728;83;21304;-57
2021/10/19 04:00:57;;;;;;;9.43;5.25;;;;;;;4.59;75.69;101038.78;1683795;83;21018;-57
2021/10/19 04:03:23;;;;;;;8.10;5.42;;;;;;;4.63;75.52;101041.04;1666761;83;21009;-57
2021/10/19 04:05:49;;;;;;;10.43;7.33;;;;;;;4.69;75.42;101037.03;1680003;83;21933;-57
2021/10/19 04:08:16;;;;;;;;;;;;;;;4.72;75.19;101045.16;1672973;83;21323;-57
2021/10/19 04:10:42;;;;;;;10.30;5.97;;;;;;;4.70;75.11;101041.33;1663179;83;20244;-57
2021/10/19 04:13:08;;;;;;;7.70;5.67;;;;;;;4.62;75.05;101047.27;1662244;83;21035;-55
2021/10/19 04:15:34;;;;;;;6.95;5.85;;;;;;;4.61;74.93;101046.08;1689402;83;21076;-58
2021/10/19 04:18:01;;;;;;;11.70;6.78;;;;;;;4.62;74.80;101046.45;1674354;83;21088;-58
2021/10/19 04:20:28;;;;;;;7.73;5.60;;;;;;;4.64;74.63;101045.34;1671640;83;21073;-59
2021/10/19 04:22:54;;;;;;;7.03;6.33;;;;;;;4.65;74.42;101049.66;1682234;83;21073;-58
2021/10/19 04:25:20;;;;;;;7.45;6.47;;;;;;;4.64;74.33;101050.62;1677532;83;21315;-57
2021/10/19 04:27:46;;;;;;;8.73;6.35;;;;;;;4.63;74.23;101056.02;1683875;83;21305;-56
2021/10/19 04:30:12;;;;;;;8.15;7.35;;;;;;;4.59;74.25;101046.70;1687173;83;21008;-58
2021/10/19 04:32:38;;;;;;;6.65;5.90;;;;;;;4.56;74.28;101058.38;1690586;83;21283;-59
2021/10/19 04:35:05;;;;;;;6.75;6.15;;;;;;;4.53;74.25;101062.58;1707890;82;21001;-57
2021/10/19 04:37:32;;;;;;;9.73;6.50;;;;;;;4.51;74.11;101065.84;1693539;82;21768;-57
2021/10/19 04:39:59;;;;;;;;;;;;;;;4.55;74.00;101067.25;1688878;82;21308;-57
2021/10/19 04:42:28;;;;;;;8.30;5.73;;;;;;;4.59;73.91;101072.61;1701601;82;20160;-59
2021/10/19 04:44:53;;;;;;;16.03;7.00;;;;;;;4.58;73.91;101075.41;1692925;82;21388;-59
2021/10/19 04:47:22;;;;;;;12.05;6.33;;;;;;;4.52;73.94;101069.31;1660424;85;21363;-57
2021/10/19 04:49:48;;;;;;;14.13;6.43;;;;;;;4.56;74.01;101080.81;1655577;85;21109;-57
2021/10/19 04:52:14;;;;;;;29.32;8.03;;;;;;;4.56;74.14;101086.55;1658284;85;21295;-58
2021/10/19 04:54:40;;;;;;;34.43;9.13;;;;;;;4.56;74.05;101089.20;1660277;85;21120;-58
2021/10/19 04:57:06;;;;;;;9.38;6.47;;;;;;;4.57;74.05;101091.71;1649985;85;21763;-58
2021/10/19 04:59:32;;;;;;;8.25;6.60;;;;;;;4.63;73.98;101092.53;1654749;85;21002;-57
2021/10/19 05:01:59;;;;;;;7.53;5.87;;;;;;;4.73;73.82;101097.86;1628142;86;22003;-59
2021/10/19 05:04:25;;;;;;;8.05;6.83;;;;;;;4.80;73.32;101092.41;1626336;86;21066;-57
2021/10/19 05:06:51;;;;;;;7.08;5.62;;;;;;;5.08;72.58;101105.84;1588849;88;21105;-62
2021/10/19 05:09:18;;;;;;;;;;;;;;;5.44;71.26;101104.44;1653578;85;21091;-59
2021/10/19 05:11:43;;;;;;;7.07;5.50;;;;;;;5.89;70.08;101107.54;1654667;82;20139;-59
2021/10/19 05:14:10;;;;;;;11.43;7.03;;;;;;;6.21;67.71;101109.92;1666711;84;21033;-58
2021/10/19 05:16:36;;;;;;;9.03;6.50;;;;;;;6.38;67.28;101109.69;1663095;84;21112;-57
2021/10/19 05:19:02;;;;;;;8.95;6.12;;;;;;;6.42;66.17;101107.95;1629461;86;21966;-60
2021/10/19 05:21:28;;;;;;;6.20;5.33;;;;;;;6.40;66.06;101110.38;1661077;84;21108;-59
2021/10/19 05:23:55;;;;;;;7.33;5.83;;;;;;;6.39;66.11;101119.33;1658755;83;21265;-60
2021/10/19 05:26:21;;;;;;;7.78;5.20;;;;;;;6.36;66.08;101123.06;1655719;85;21113;-61
2021/10/19 05:28:47;;;;;;;6.05;5.25;;;;;;;6.42;65.68;101118.55;1655378;85;21305;-59
2021/10/19 05:31:14;;;;;;;7.50;5.70;;;;;;;6.55;65.25;101116.90;1644068;85;21310;-60
2021/10/19 05:33:40;;;;;;;6.83;5.83;;;;;;;6.95;65.06;101124.24;1651778;85;21871;-62
2021/10/19 05:36:07;;;;;;;6.93;5.20;;;;;;;7.70;63.71;101120.98;1665411;84;21189;-62
2021/10/19 05:38:34;;;;;;;8.83;6.73;;;;;;;8.64;61.38;101123.62;1654222;84;21160;-59
2021/10/19 05:41:03;;;;;;;7.78;6.37;;;;;;;9.41;57.22;101129.48;1656320;84;21092;-58
2021/10/19 05:43:29;;;;;;;9.57;7.87;;;;;;;9.99;56.89;101129.13;1661642;84;21305;-59
2021/10/19 05:45:56;;;;;;;;;;;;;;;10.68;53.79;101125.59;1637547;85;21435;-60
2021/10/19 05:48:22;;;;;;;9.48;6.67;;;;;;;11.33;52.50;101132.57;1654759;85;20370;-63
2021/10/19 05:50:48;;;;;;;8.60;7.20;;;;;;;11.91;49.61;101136.30;1655279;85;21272;-60
2021/10/19 05:53:14;;;;;;;7.85;6.83;;;;;;;12.32;48.52;101135.96;1646546;85;21065;-60
2021/10/19 05:55:41;;;;;;;9.53;7.67;;;;;;;12.55;46.91;101139.45;1635634;84;21947;-60
2021/10/19 05:58:07;;;;;;;;;;;;;;;12.42;47.75;101137.89;1656958;84;21041;-59
2021/10/19 06:00:34;;;;;;;7.45;6.08;;;;;;;11.96;47.66;101143.25;1662458;83;20171;-61
2021/10/19 06:03:00;;;;;;;9.70;6.75;;;;;;;11.20;48.87;101145.13;1661589;84;21811;-58
2021/10/19 06:05:26;;;;;;;11.00;7.15;;;;;;;10.54;50.34;101143.13;1658721;84;21956;-58
2021/10/19 06:07:54;;;;;;;10.17;5.73;;;;;;;9.88;51.86;101149.73;1652610;84;21350;-58
2021/10/19 06:10:22;;;;;;;5.17;4.67;;;;;;;9.24;53.62;101147.21;1651833;84;21142;-58
2021/10/19 06:12:49;;;;;;;13.38;5.90;;;;;;;8.60;55.05;101152.83;1681713;82;21819;-61
2021/10/19 06:15:16;;;;;;;7.67;4.83;;;;;;;8.07;57.03;101153.20;1710555;82;21253;-59
2021/10/19 06:17:43;;;;;;;6.30;4.77;;;;;;;7.67;57.96;101149.16;1695977;82;21229;-59
2021/10/19 06:20:11;;;;;;;6.73;5.23;;;;;;;7.48;58.84;101155.42;1693275;82;21076;-59
2021/10/19 06:22:39;;;;;;;4.87;4.23;;;;;;;7.30;59.18;101147.90;1691451;81;21165;-59
2021/10/19 06:25:07;;;;;;;7.60;5.33;;;;;;;7.15;59.58;101155.50;1643814;85;21088;-60
2021/10/19 06:27:33;;;;;;;5.10;4.57;;;;;;;7.04;59.79;101156.50;1641422;85;21177;-57
2021/10/19 06:30:01;;;;;;;9.40;5.17;;;;;;;6.94;60.44;101154.39;1645343;85;21824;-59
2021/10/19 06:32:28;;;;;;;5.83;5.23;;;;;;;6.86;60.67;101156.94;1646142;86;21110;-60
2021/10/19 06:34:54;;;;;;;6.78;5.87;;;;;;;6.75;61.47;101165.39;1644257;83;21041;-60
2021/10/19 06:37:20;;;;;;;7.12;5.42;;;;;;;6.64;61.68;101168.20;1673755;83;21012;-59
2021/10/19 06:39:46;;;;;;;8.80;6.58;;;;;;;6.58;62.06;101170.09;1679979;83;21034;-58
2021/10/19 06:42:13;;;;;;;8.08;6.87;;;;;;;6.55;62.44;101167.72;1683124;83;22041;-58
2021/10/19 06:44:40;;;;;;;8.97;6.37;;;;;;;6.55;62.34;101173.02;1632390;83;21016;-59
2021/10/19 06:47:07;;;;;;;8.55;5.80;;;;;;;6.56;62.77;101172.06;1682803;84;21038;-61
2021/10/19 06:49:33;;;;;;;9.78;6.70;;;;;;;6.61;62.44;101165.82;1682166;83;21038;-59
2021/10/19 06:51:58;;;;;;;9.13;6.50;;;;;;;6.67;62.38;101175.02;1680390;83;21150;-60
2021/10/19 06:54:24;;;;;;;10.98;6.70;;;;;;;6.72;62.04;101166.16;1678699;84;21016;-60
2021/10/19 06:56:51;;;;;;;7.00;5.97;;;;;;;6.73;62.17;101171.32;1682754;83;21140;-60
2021/10/19 06:59:17;;;;;;;11.97;7.20;;;;;;;6.77;62.23;101166.08;1681170;83;21105;-57
2021/10/19 07:01:43;;;;;;;8.60;6.30;;;;;;;6.81;61.98;101172.76;1678743;83;21095;-58
2021/10/19 07:04:09;;;;;;;9.23;6.40;;;;;;;6.86;62.02;101165.72;1682026;84;21185;-59
2021/10/19 07:06:36;;;;;;;9.78;7.03;;;;;;;6.95;61.57;101170.62;1677010;83;21034;-60
2021/10/19 07:09:02;;;;;;;9.50;6.37;;;;;;;7.02;61.54;101164.59;1666969;83;21147;-60
2021/10/19 07:11:30;;;;;;;;;;;;;;;7.12;61.34;101161.94;1677478;80;21796;-59
2021/10/19 07:13:58;;;;;;;10.63;8.17;;;;;;;7.23;60.76;101164.05;1676389;83;20517;-59
2021/10/19 07:16:24;;;;;;;6.83;5.12;;;;;;;7.24;60.59;101165.23;1666601;83;21315;-59
2021/10/19 07:18:50;;;;;;;11.50;6.10;;;;;;;7.30;60.18;101162.48;1676884;83;21124;-60
2021/10/19 07:21:16;;;;;;;7.67;5.20;;;;;;;7.37;59.87;101159.59;1664885;83;20982;-59
2021/10/19 07:23:43;;;;;;;8.93;5.20;;;;;;;7.42;59.76;101165.27;1681884;83;21013;-60
2021/10/19 07:26:09;;;;;;;6.60;5.22;;;;;;;7.44;59.53;101163.34;1679070;83;21010;-60
2021/10/19 07:28:37;;;;;;;6.40;4.80;;;;;;;7.48;59.48;101163.38;1669036;83;21122;-59
2021/10/19 07:31:03;;;;;;;9.48;5.92;;;;;;;7.55;59.07;101165.79;1660697;83;21234;-60
2021/10/19 07:33:29;;;;;;;11.95;6.40;;;;;;;7.60;59.28;101160.84;1665035;83;21737;-61
2021/10/19 07:35:56;;;;;;;7.83;6.90;;;;;;;7.69;59.19;101160.46;1673499;83;21832;-61
2021/10/19 07:38:22;;;;;;;8.13;5.12;;;;;;;7.83;59.00;101158.27;1674161;83;21073;-60
2021/10/19 07:40:48;;;;;;;6.78;4.53;;;;;;;7.95;58.33;101157.09;1672910;84;21061;-59
2021/10/19 07:43:14;;;;;;;9.08;4.80;;;;;;;8.13;58.25;101158.40;1683045;83;21047;-58
2021/10/19 07:45:42;;;;;;;11.38;4.97;;;;;;;8.13;58.25;101158.40;1671393;81;21847;-61
2021/10/19 07:48:08;;;;;;;10.30;4.33;;;;;;;8.24;57.59;101159.49;1670611;83;21103;-59
2021/10/19 07:50:35;;;;;;;5.40;4.08;;;;;;;8.37;57.04;101159.11;1677826;83;21039;-61
2021/10/19 07:53:01;;;;;;;;;;;;;;;8.45;56.46;101155.71;1678479;84;21092;-59
2021/10/19 07:55:30;;;;;;;9.97;5.37;;;;;;;8.54;56.16;101158.77;1671850;83;20181;-58
2021/10/19 07:57:55;;;;;;;5.70;4.37;;;;;;;8.54;55.97;101156.11;1677977;83;21077;-60
2021/10/19 08:00:26;;;;;;;4.65;3.72;;;;;;;8.64;55.88;101159.50;1670507;82;21010;-60
2021/10/19 08:02:55;;;;;;;4.03;3.67;;;;;;;8.74;55.09;101160.25;1681224;83;21775;-61
2021/10/19 08:05:22;;;;;;;6.97;6.23;;;;;;;8.81;53.90;101156.95;1682890;83;21887;-60
2021/10/19 08:07:52;;;;;;;6.03;3.70;;;;;;;8.84;53.81;101155.33;1667297;83;21124;-61
2021/10/19 08:10:22;;;;;;;7.63;4.30;;;;;;;8.90;54.24;101160.00;1677213;83;21099;-60
2021/10/19 08:12:50;;;;;;;9.67;4.23;;;;;;;9.00;54.23;101164.70;1692804;82;21107;-59
2021/10/19 08:15:18;;;;;;;3.25;2.42;;;;;;;9.12;53.71;101158.64;1697613;82;21062;-60
2021/10/19 08:17:46;;;;;;;3.33;2.40;;;;;;;9.21;53.04;101162.16;1698163;82;21008;-60
2021/10/19 08:20:14;;;;;;;5.00;2.63;;;;;;;9.29;52.66;101167.02;1708023;82;21049;-60
2021/10/19 08:22:41;;;;;;;5.43;2.43;;;;;;;9.40;52.43;101167.72;1695573;82;21009;-58
2021/10/19 08:25:09;;;;;;;6.40;2.10;;;;;;;9.50;51.97;101162.61;1705010;82;21054;-59
2021/10/19 08:27:39;;;;;;;2.87;1.70;;;;;;;9.59;50.33;101163.96;1699759;82;21094;-60
2021/10/19 08:30:09;;;;;;;4.13;1.17;;;;;;;9.67;50.00;101162.67;1710674;82;21157;-58
2021/10/19 08:32:36;;;;;;;4.30;1.53;;;;;;;9.63;49.20;101152.84;1691601;82;21791;-59
2021/10/19 08:35:04;;;;;;;2.45;1.37;;;;;;;9.72;48.71;101171.02;1648994;83;21124;-59
2021/10/19 08:37:32;;;;;;;1.30;0.90;;;;;;;9.75;48.55;101182.65;1621591;86;21895;-62
2021/10/19 08:39:59;;;;;;;1.60;0.90;;;;;;;9.81;48.65;101181.99;1604604;87;21902;-60
2021/10/19 08:42:26;;;;;;;1.07;0.50;;;;;;;9.91;48.47;101187.20;1615918;87;21472;-60
2021/10/19 08:44:53;;;;;;;2.10;0.83;;;;;;;9.94;47.91;101182.38;1615364;87;21108;-59
2021/10/19 08:47:20;;;;;;;2.15;0.70;;;;;;;10.00;48.00;101186.70;1577730;89;21104;-59
2021/10/19 08:49:46;;;;;;;1.10;0.67;;;;;;;10.04;47.99;101183.56;1617145;87;21120;-61
2021/10/19 08:52:13;;;;;;;1.05;0.95;;;;;;;10.08;48.08;101184.07;1605822;87;21130;-59
2021/10/19 08:54:39;;;;;;;3.37;1.50;;;;;;;10.14;48.21;101188.23;1606951;87;21073;-61
2021/10/19 08:57:14;;;;;;;;;;;;;;;10.19;48.06;101189.08;1619358;87;21074;-60
2021/10/19 08:59:45;;;;;;;4.57;1.83;;;;;;;9.24;48.09;101019.53;1629644;87;20201;-59
2021/10/19 09:02:13;;;;;;;4.03;1.23;;;;;;;10.22;48.34;101193.23;1611562;87;21928;-59
2021/10/19 09:04:40;;;;;;;2.23;1.13;;;;;;;10.29;48.26;101200.41;1598582;88;21388;-59
2021/10/19 09:07:06;;;;;;;1.80;1.17;;;;;;;10.39;48.11;101203.44;1590998;88;21094;-61
2021/10/19 09:09:35;;;;;;;0.80;0.80;;;;;;;10.48;47.75;101198.45;1603368;87;21067;-60
2021/10/19 09:12:04;;;;;;;3.20;1.10;;;;;;;10.55;47.39;101200.78;1589851;87;21374;-60
2021/10/19 09:14:37;;;;;;;1.23;0.47;;;;;;;10.61;47.05;101201.95;1621728;86;21117;-59
2021/10/19 09:17:05;;;;;;;0.80;0.60;;;;;;;10.57;46.37;101197.45;1640059;86;21109;-60
2021/10/19 09:19:34;;;;;;;0.50;0.30;;;;;;;10.53;46.33;101192.13;1628384;86;21421;-59
2021/10/19 09:22:05;;;;;;;0.73;0.20;;;;;;;10.53;45.66;101185.46;1624040;86;21095;-61
2021/10/19 09:24:35;;;;;;;4.30;0.63;;;;;;;10.58;45.70;101188.94;1626154;86;21422;-60
2021/10/19 09:27:14;;;;;;;3.50;0.20;;;;;;;10.63;44.82;101182.62;1609207;86;21376;-61
2021/10/19 09:29:46;;;;;;;0.80;0.10;;;;;;;10.67;44.04;101191.43;1617212;86;21296;-61
2021/10/19 09:32:14;;;;;;;3.37;0.37;;;;;;;10.74;43.73;101188.09;1633597;86;21884;-61
2021/10/19 09:34:45;;;;;;;1.50;0.20;;;;;;;10.77;44.27;101190.42;1611339;86;21048;-60
2021/10/19 09:37:18;;;;;;;1.93;0.83;;;;;;;10.85;44.10;101182.40;1627330;86;21110;-61
2021/10/19 09:39:48;;;;;;;4.80;0.80;;;;;;;10.92;43.65;101188.73;1619211;86;21108;-61
2021/10/19 09:42:28;;;;;;;0.80;0.43;;;;;;;10.89;43.05;101187.75;1616196;86;21256;-65
2021/10/19 09:45:01;;;;;;;0.40;0.30;;;;;;;10.86;43.62;101184.08;1620751;83;21085;-61
2021/10/19 09:47:38;;;;;;;2.87;0.57;;;;;;;10.84;42.50;101186.09;1621892;86;21050;-64
2021/10/19 09:50:07;;;;;;;1.87;0.33;;;;;;;10.75;42.10;101186.59;1622915;86;21352;-60
2021/10/19 09:52:37;;;;;;;2.53;0.23;;;;;;;10.62;42.52;101197.76;1624238;86;22352;-65
2021/10/19 09:55:07;;;;;;;1.50;0.20;;;;;;;10.49;43.16;101196.09;1623003;86;21340;-61
2021/10/19 09:57:34;;;;;;;0.93;0.27;;;;;;;10.42;43.57;101187.13;1622491;86;21009;-60
2021/10/19 10:00:01;;;;;;;0.68;0.30;;;;;;;10.42;43.73;101188.46;1621849;86;21805;-62
2021/10/19 10:02:31;;;;;;;3.13;0.40;;;;;;;10.48;43.30;101191.27;1621866;86;21069;-61
2021/10/19 10:05:00;;;;;;;1.40;0.50;;;;;;;10.48;42.48;101185.95;1620911;86;21053;-64
2021/10/19 10:07:34;;;;;;;0.87;0.20;;;;;;;10.39;42.66;101180.78;1621592;86;21179;-61
2021/10/19 10:09:59;;;;;;;0.90;0.40;;;;;;;10.45;42.78;101189.44;1623292;86;21128;-62
2021/10/19 10:12:31;;;;;;;1.87;0.20;;;;;;;10.48;43.32;101186.45;1643727;84;22014;-60
2021/10/19 10:14:57;;;;;;;3.70;0.40;;;;;;;10.55;43.31;101182.60;1662937;83;21074;-65
2021/10/19 10:17:25;;;;;;;0.73;0.23;;;;;;;10.63;43.34;101179.95;1664367;83;21450;-61
2021/10/19 10:19:52;;;;;;;;;;;;;;;10.63;42.65;101177.28;1644039;85;21503;-62
2021/10/19 10:22:32;;;;;;;0.30;0.20;;;;;;;10.54;42.90;101181.78;1663851;83;20185;-59
2021/10/19 10:25:09;;;;;;;;;;;;;;;10.41;43.32;101182.78;1667101;83;21049;-58
2021/10/19 10:27:38;;;;;;;0.80;0.30;;;;;;;10.38;43.43;101173.78;1673386;83;20274;-59
2021/10/19 10:30:05;;;;;;;0.40;0.30;;;;;;;10.32;42.67;101172.13;1638974;85;21913;-61
2021/10/19 10:32:37;;;;;;;0.60;0.20;;;;;;;10.35;42.27;101169.63;1632384;85;21050;-58
2021/10/19 10:35:10;;;;;;;4.27;0.20;;;;;;;10.37;42.05;101172.13;1634721;86;21349;-61
2021/10/19 10:37:48;;;;;;;0.70;0.30;;;;;;;10.40;41.97;101178.47;1597407;88;21386;-57
2021/10/19 10:40:34;;;;;;;1.13;0.33;;;;;;;10.40;42.25;101178.47;1621781;86;21125;-59
2021/10/19 10:43:18;;;;;;;0.87;0.20;;;;;;;10.37;42.59;101168.13;1561670;89;21167;-62
2021/10/19 10:46:06;;;;;;;1.23;0.60;;;;;;;10.40;42.43;101169.14;1565707;88;21162;-60
2021/10/19 10:48:35;;;;;;;1.47;0.20;;;;;;;10.41;41.00;101166.28;1654220;85;21146;-60
2021/10/19 10:51:03;;;;;;;1.03;0.30;;;;;;;10.38;41.50;101162.64;1652613;85;21096;-60
2021/10/19 10:56:15;;;;;;;1.20;0.43;;;;;;;10.49;41.04;101162.78;1780189;78;22282;-59
2021/10/19 10:58:42;;;;;;;2.33;0.90;;;;;;;10.47;40.96;101171.45;1712189;82;21025;-58
2021/10/19 11:01:21;;;;;;;1.40;0.20;;;;;;;10.51;41.11;101165.63;1709667;81;21090;-61
2021/10/19 11:03:52;;;;;;;1.50;0.30;;;;;;;10.57;41.34;101160.13;1712685;81;21050;-59
2021/10/19 11:06:22;;;;;;;1.37;0.33;;;;;;;10.58;41.20;101160.45;1695640;83;21209;-59
2021/10/19 11:08:58;;;;;;;3.20;0.50;;;;;;;10.61;41.39;101155.30;1726086;82;21817;-61
2021/10/19 11:11:25;;;;;;;2.53;0.30;;;;;;;10.57;41.36;101144.13;1722550;81;21806;-61
2021/10/19 11:13:58;;;;;;;1.00;0.70;;;;;;;10.66;40.89;101152.45;1716810;82;21110;-61
2021/10/19 11:16:42;;;;;;;1.70;0.20;;;;;;;10.66;39.56;101149.79;1714453;82;21006;-59
2021/10/19 11:19:24;;;;;;;0.80;0.20;;;;;;;10.61;39.92;101151.30;1700978;82;21885;-62
2021/10/19 11:21:55;;;;;;;1.10;0.10;;;;;;;10.59;39.96;101155.45;1716372;82;21781;-60
2021/10/19 11:24:24;;;;;;;0.30;0.20;;;;;;;10.58;39.48;101143.62;1709314;82;21275;-61
2021/10/19 11:26:51;;;;;;;0.97;0.20;;;;;;;10.56;38.72;101141.63;1702032;83;20993;-59
2021/10/19 11:29:19;;;;;;;0.97;0.20;;;;;;;10.50;38.46;101145.80;1658849;84;21064;-60
2021/10/19 11:31:47;;;;;;;0.60;0.30;;;;;;;10.48;38.49;101155.80;1680210;83;21054;-62
2021/10/19 11:34:13;;;;;;;1.40;0.30;;;;;;;10.47;38.67;101146.13;1694390;83;21013;-60
2021/10/19 11:36:40;;;;;;;0.50;0.20;;;;;;;10.49;38.75;101146.31;1692626;84;21058;-61
2021/10/19 11:39:14;;;;;;;1.55;0.20;;;;;;;10.50;38.48;101135.14;1694477;83;21312;-63